Time;durP1;ratioP1;P1;durP2;ratioP2;P2;SDS_P1;SDS_P2;PMS_P1;PMS_P2;Temp;Humidity;BMP_temperature;BMP_pressure;BME280_temperature;BME280_humidity;BME280_pressure;Samples;Min_cycle;Max_cycle;Signal;HPM_P1;HPM_P2
2022/04/10 00:00:49;;;;;;;5.40;1.75;;;;;;;;;;4969297;28;20584;-83
2022/04/10 00:03:14;;;;;;;6.07;2.30;;;;;;;;;;4985359;28;20042;-82
2022/04/10 00:05:39;;;;;;;5.15;2.05;;;;;;;;;;4985133;28;20396;-82
2022/04/10 00:08:05;;;;;;;8.27;2.58;;;;;;;;;;4982508;28;20038;-82
2022/04/10 00:10:30;;;;;;;5.25;2.30;;;;;;;;;;4995509;28;20409;-83
2022/04/10 00:12:56;;;;;;;6.75;2.35;;;;;;;;;;4975275;28;20043;-82
2022/04/10 00:15:21;;;;;;;5.07;2.20;;;;;;;;;;4979387;28;20034;-82
2022/04/10 00:17:46;;;;;;;5.85;2.17;;;;;;;;;;4980520;28;20038;-82
2022/04/10 00:20:12;;;;;;;4.75;2.25;;;;;;;;;;4963034;28;20485;-82
2022/04/10 00:22:44;;;;;;;5.90;2.40;;;;;;;;;;4964559;28;20050;-81
2022/04/10 00:25:11;;;;;;;7.65;2.58;;;;;;;;;;4967538;28;20137;-81
2022/04/10 00:27:36;;;;;;;8.98;2.92;;;;;;;;;;4997892;28;20065;-82
2022/04/10 00:30:02;;;;;;;8.52;2.85;;;;;;;;;;4997864;28;20568;-83
2022/04/10 00:32:28;;;;;;;8.45;2.90;;;;;;;;;;4978705;28;20221;-82
2022/04/10 00:34:54;;;;;;;7.53;2.90;;;;;;;;;;4997162;28;20035;-82
2022/04/10 00:37:19;;;;;;;8.02;3.10;;;;;;;;;;4984798;28;20034;-82
2022/04/10 00:39:45;;;;;;;6.43;3.28;;;;;;;;;;4965320;28;20049;-82
2022/04/10 00:42:10;;;;;;;7.63;3.05;;;;;;;;;;4974161;28;20034;-82
2022/04/10 00:44:35;;;;;;;7.28;3.00;;;;;;;;;;4978938;28;20046;-82
2022/04/10 00:47:01;;;;;;;7.65;3.15;;;;;;;;;;4982819;28;20539;-82
2022/04/10 00:49:26;;;;;;;6.05;3.20;;;;;;;;;;4984035;28;20049;-82
2022/04/10 00:51:53;;;;;;;8.88;3.88;;;;;;;;;;4987669;28;20033;-83
2022/04/10 00:54:25;;;;;;;9.15;3.65;;;;;;;;;;4969723;28;20046;-81
2022/04/10 00:56:50;;;;;;;8.18;3.60;;;;;;;;;;4978116;28;20026;-82
2022/04/10 00:59:16;;;;;;;9.35;4.03;;;;;;;;;;4995912;28;20058;-81
2022/04/10 01:01:44;;;;;;;7.78;4.28;;;;;;;;;;4988076;28;20068;-82
2022/04/10 01:04:11;;;;;;;6.30;3.80;;;;;;;;;;4965391;28;20390;-83
2022/04/10 01:06:37;;;;;;;7.82;3.92;;;;;;;;;;4982966;28;20133;-82
2022/04/10 01:09:03;;;;;;;7.82;4.00;;;;;;;;;;4969833;28;20039;-82
2022/04/10 01:11:29;;;;;;;7.03;4.03;;;;;;;;;;4975166;28;20050;-82
2022/04/10 01:13:55;;;;;;;7.88;4.07;;;;;;;;;;4969808;28;20363;-82
2022/04/10 01:16:23;;;;;;;6.75;4.10;;;;;;;;;;4978230;28;20034;-83
2022/04/10 01:18:52;;;;;;;6.70;4.28;;;;;;;;;;4985368;28;20049;-83
2022/04/10 01:21:25;;;;;;;7.45;4.32;;;;;;;;;;4967273;28;20066;-82
2022/04/10 01:23:55;;;;;;;13.32;4.18;;;;;;;;;;4974680;28;20454;-82
2022/04/10 01:26:21;;;;;;;8.15;4.00;;;;;;;;;;4974659;28;20031;-82
2022/04/10 01:28:56;;;;;;;6.53;4.00;;;;;;;;;;4976083;28;20038;-83
2022/04/10 01:31:21;;;;;;;7.28;3.92;;;;;;;;;;4977137;28;20046;-81
2022/04/10 01:33:47;;;;;;;10.65;4.65;;;;;;;;;;4966573;28;20053;-82
2022/04/10 01:36:12;;;;;;;8.02;4.68;;;;;;;;;;4977696;28;20110;-81
2022/04/10 01:38:38;;;;;;;10.10;4.38;;;;;;;;;;4965379;28;20046;-81
2022/04/10 01:41:03;;;;;;;8.15;4.18;;;;;;;;;;4974464;28;20125;-81
2022/04/10 01:43:28;;;;;;;7.15;4.22;;;;;;;;;;4977080;28;21367;-81
2022/04/10 01:45:54;;;;;;;8.43;4.60;;;;;;;;;;4976642;28;20042;-81
2022/04/10 01:48:19;;;;;;;12.65;5.35;;;;;;;;;;4994426;28;20390;-81
2022/04/10 01:50:45;;;;;;;7.80;4.28;;;;;;;;;;4996942;28;20100;-82
2022/04/10 01:53:10;;;;;;;8.30;4.00;;;;;;;;;;4988556;28;20436;-81
2022/04/10 01:55:36;;;;;;;9.93;5.05;;;;;;;;;;4997078;28;20417;-82
2022/04/10 01:58:02;;;;;;;10.43;4.55;;;;;;;;;;4994915;28;20034;-82
2022/04/10 02:00:27;;;;;;;8.15;4.40;;;;;;;;;;4987900;28;20049;-81
2022/04/10 02:02:52;;;;;;;8.85;4.28;;;;;;;;;;4967946;28;20058;-81
2022/04/10 02:05:17;;;;;;;8.48;4.07;;;;;;;;;;4967647;28;20519;-81
2022/04/10 02:07:43;;;;;;;10.60;3.88;;;;;;;;;;4970927;28;20042;-81
2022/04/10 02:10:08;;;;;;;12.02;4.22;;;;;;;;;;4995702;28;20323;-82
2022/04/10 02:12:34;;;;;;;9.45;4.50;;;;;;;;;;4967230;28;20066;-81
2022/04/10 02:14:59;;;;;;;10.43;4.47;;;;;;;;;;4975389;28;20386;-81
2022/04/10 02:17:25;;;;;;;9.27;4.45;;;;;;;;;;4984306;28;20389;-82
2022/04/10 02:19:50;;;;;;;11.20;4.53;;;;;;;;;;4986941;28;20468;-81
2022/04/10 02:22:16;;;;;;;9.35;4.03;;;;;;;;;;4984181;28;20085;-81
2022/04/10 02:24:41;;;;;;;11.93;4.63;;;;;;;;;;4968074;28;20038;-81
2022/04/10 02:27:06;;;;;;;10.57;4.03;;;;;;;;;;4977348;28;20060;-81
2022/04/10 02:29:31;;;;;;;10.40;4.32;;;;;;;;;;4997738;28;20050;-82
2022/04/10 02:31:57;;;;;;;8.50;4.25;;;;;;;;;;4974645;28;20061;-82
2022/04/10 02:34:23;;;;;;;10.55;4.03;;;;;;;;;;4972213;28;20034;-82
2022/04/10 02:36:49;;;;;;;9.13;4.30;;;;;;;;;;4979631;28;20072;-82
2022/04/10 02:39:20;;;;;;;10.10;4.30;;;;;;;;;;4980468;28;20470;-81
2022/04/10 02:41:45;;;;;;;8.60;4.30;;;;;;;;;;4961017;28;20054;-81
2022/04/10 02:44:10;;;;;;;11.13;4.75;;;;;;;;;;4966409;28;20466;-81
2022/04/10 02:46:36;;;;;;;10.05;5.18;;;;;;;;;;4958553;28;20074;-81
2022/04/10 02:49:01;;;;;;;13.82;4.88;;;;;;;;;;4958339;28;20177;-81
2022/04/10 02:51:27;;;;;;;10.73;4.13;;;;;;;;;;4974088;28;20049;-82
2022/04/10 02:53:52;;;;;;;8.63;4.10;;;;;;;;;;5001375;28;20034;-81
2022/04/10 02:56:17;;;;;;;9.77;4.13;;;;;;;;;;4986564;28;20431;-81
2022/04/10 02:58:42;;;;;;;10.43;4.25;;;;;;;;;;4984221;28;20038;-82
2022/04/10 03:01:08;;;;;;;10.75;4.20;;;;;;;;;;4967890;28;20109;-81
2022/04/10 03:03:33;;;;;;;7.55;3.58;;;;;;;;;;4961819;28;20042;-82
2022/04/10 03:05:58;;;;;;;9.02;3.88;;;;;;;;;;4994779;28;20035;-81
2022/04/10 03:08:24;;;;;;;8.23;4.20;;;;;;;;;;4986373;28;20038;-81
2022/04/10 03:10:49;;;;;;;11.73;4.20;;;;;;;;;;4985751;28;20091;-82
2022/04/10 03:13:15;;;;;;;11.85;4.15;;;;;;;;;;4979082;28;20038;-81
2022/04/10 03:15:40;;;;;;;10.85;4.22;;;;;;;;;;4993877;28;20030;-82
2022/04/10 03:18:05;;;;;;;11.25;4.45;;;;;;;;;;4987833;28;20105;-82
2022/04/10 03:20:30;;;;;;;10.82;4.13;;;;;;;;;;4983456;28;20030;-81
2022/04/10 03:22:56;;;;;;;8.50;3.42;;;;;;;;;;4979403;28;20535;-82
2022/04/10 03:25:21;;;;;;;11.02;4.00;;;;;;;;;;4984772;28;20070;-82
2022/04/10 03:27:46;;;;;;;11.73;3.67;;;;;;;;;;4985344;28;20052;-82
2022/04/10 03:30:12;;;;;;;10.73;3.63;;;;;;;;;;4984412;28;20038;-81
2022/04/10 03:32:37;;;;;;;10.65;4.00;;;;;;;;;;4989064;28;20741;-82
2022/04/10 03:35:02;;;;;;;14.10;3.60;;;;;;;;;;4965200;28;20046;-82
2022/04/10 03:37:28;;;;;;;12.55;3.63;;;;;;;;;;4981145;28;20398;-81
2022/04/10 03:39:53;;;;;;;13.30;3.67;;;;;;;;;;4967065;28;20049;-81
2022/04/10 03:42:18;;;;;;;12.32;3.83;;;;;;;;;;4973759;28;20153;-81
2022/04/10 03:44:44;;;;;;;9.82;3.40;;;;;;;;;;4985480;28;20041;-81
2022/04/10 03:47:09;;;;;;;11.90;3.55;;;;;;;;;;4982638;28;20048;-81
2022/04/10 03:49:34;;;;;;;10.20;3.35;;;;;;;;;;4978914;28;20046;-81
2022/04/10 03:52:00;;;;;;;12.68;3.97;;;;;;;;;;4984152;28;20085;-82
2022/04/10 03:54:25;;;;;;;10.32;3.60;;;;;;;;;;4972052;28;20092;-82
2022/04/10 03:56:50;;;;;;;13.73;3.97;;;;;;;;;;4965070;28;20034;-82
2022/04/10 03:59:15;;;;;;;10.38;3.45;;;;;;;;;;4966426;28;20038;-81
2022/04/10 04:01:41;;;;;;;10.98;3.85;;;;;;;;;;4988270;28;20035;-82
2022/04/10 04:04:06;;;;;;;12.23;3.72;;;;;;;;;;4975407;28;20085;-81
2022/04/10 04:06:31;;;;;;;11.02;4.40;;;;;;;;;;4973700;28;20084;-82
2022/04/10 04:08:57;;;;;;;15.90;7.22;;;;;;;;;;4962021;28;20122;-82
2022/04/10 04:11:22;;;;;;;12.48;3.80;;;;;;;;;;4971802;28;20445;-83
2022/04/10 04:13:47;;;;;;;10.55;4.53;;;;;;;;;;4992858;28;20038;-81
2022/04/10 04:16:12;;;;;;;14.38;4.40;;;;;;;;;;4999060;28;20554;-81
2022/04/10 04:18:38;;;;;;;13.80;4.63;;;;;;;;;;4991774;28;20038;-81
2022/04/10 04:21:04;;;;;;;13.13;3.90;;;;;;;;;;4986288;28;20041;-81
2022/04/10 04:23:29;;;;;;;11.05;3.60;;;;;;;;;;4973120;28;20049;-82
2022/04/10 04:25:54;;;;;;;10.57;3.45;;;;;;;;;;4969166;28;20041;-81
2022/04/10 04:28:20;;;;;;;11.43;3.88;;;;;;;;;;4983021;28;20034;-82
2022/04/10 04:30:46;;;;;;;10.32;3.35;;;;;;;;;;4992937;28;20106;-82
2022/04/10 04:33:11;;;;;;;12.27;3.50;;;;;;;;;;4994774;28;20101;-81
2022/04/10 04:35:36;;;;;;;11.75;3.28;;;;;;;;;;4982077;28;20911;-81
2022/04/10 04:38:02;;;;;;;11.35;3.13;;;;;;;;;;4976530;28;20125;-81
2022/04/10 04:40:28;;;;;;;11.85;3.53;;;;;;;;;;4973086;28;20057;-82
2022/04/10 04:42:53;;;;;;;13.52;3.85;;;;;;;;;;4966046;28;20072;-81
2022/04/10 04:45:19;;;;;;;10.13;3.22;;;;;;;;;;4974624;28;20504;-83
2022/04/10 04:47:44;;;;;;;19.70;3.33;;;;;;;;;;4998088;28;20670;-82
2022/04/10 04:50:10;;;;;;;12.27;3.45;;;;;;;;;;4991429;28;20062;-81
2022/04/10 04:52:35;;;;;;;11.80;4.03;;;;;;;;;;4978071;28;20047;-81
2022/04/10 04:55:00;;;;;;;11.85;3.38;;;;;;;;;;4977790;28;20027;-82
2022/04/10 04:57:26;;;;;;;12.35;3.22;;;;;;;;;;4984687;28;20034;-82
2022/04/10 04:59:51;;;;;;;13.95;3.50;;;;;;;;;;4991102;28;20042;-80
2022/04/10 05:02:16;;;;;;;10.65;3.33;;;;;;;;;;4986353;28;20406;-82
2022/04/10 05:04:42;;;;;;;11.70;3.30;;;;;;;;;;4957262;28;20050;-82
2022/04/10 05:07:08;;;;;;;11.98;3.47;;;;;;;;;;4966283;28;20035;-81
2022/04/10 05:09:34;;;;;;;15.15;3.22;;;;;;;;;;4965136;28;20047;-82
2022/04/10 05:11:59;;;;;;;9.35;2.90;;;;;;;;;;4990733;28;20478;-81
2022/04/10 05:14:26;;;;;;;10.57;3.17;;;;;;;;;;4981551;28;20058;-82
2022/04/10 05:16:51;;;;;;;15.27;3.35;;;;;;;;;;4992680;28;20604;-81
2022/04/10 05:19:17;;;;;;;10.77;3.33;;;;;;;;;;4996285;28;20069;-81
2022/04/10 05:21:42;;;;;;;12.00;3.42;;;;;;;;;;4998212;28;20035;-80
2022/04/10 05:24:08;;;;;;;9.57;3.40;;;;;;;;;;4988638;28;20482;-81
2022/04/10 05:26:33;;;;;;;11.82;3.20;;;;;;;;;;4996533;28;20034;-82
2022/04/10 05:28:58;;;;;;;13.75;3.38;;;;;;;;;;4976602;28;20057;-84
2022/04/10 05:31:24;;;;;;;11.70;3.42;;;;;;;;;;4967156;28;20045;-86
2022/04/10 05:33:49;;;;;;;12.55;3.13;;;;;;;;;;4962238;28;20034;-86
2022/04/10 05:36:15;;;;;;;11.13;3.10;;;;;;;;;;4974123;28;20057;-84
2022/04/10 05:38:40;;;;;;;12.13;3.10;;;;;;;;;;4998435;28;20255;-82
2022/04/10 05:41:05;;;;;;;12.07;3.50;;;;;;;;;;4987398;28;20050;-83
2022/04/10 05:43:30;;;;;;;11.70;3.25;;;;;;;;;;4967152;28;20389;-80
2022/04/10 05:45:56;;;;;;;14.80;3.67;;;;;;;;;;4980480;28;20041;-81
2022/04/10 05:48:21;;;;;;;11.35;3.22;;;;;;;;;;4982070;28;20136;-83
2022/04/10 05:50:47;;;;;;;10.23;2.90;;;;;;;;;;4986030;28;20128;-83
2022/04/10 05:53:12;;;;;;;12.30;3.15;;;;;;;;;;5002453;28;20181;-81
2022/04/10 05:55:37;;;;;;;13.45;3.40;;;;;;;;;;4985260;28;20113;-80
2022/04/10 05:58:03;;;;;;;8.82;2.72;;;;;;;;;;4998411;28;20044;-82
2022/04/10 06:00:28;;;;;;;13.18;3.13;;;;;;;;;;4987652;28;20647;-84
2022/04/10 06:02:57;;;;;;;10.10;2.95;;;;;;;;;;4987544;28;20046;-81
2022/04/10 06:05:22;;;;;;;14.20;3.28;;;;;;;;;;4967949;28;20121;-81
2022/04/10 06:07:48;;;;;;;14.60;2.95;;;;;;;;;;4965980;28;20172;-82
2022/04/10 06:10:14;;;;;;;10.55;3.47;;;;;;;;;;4969749;28;20034;-83
2022/04/10 06:12:39;;;;;;;11.38;2.70;;;;;;;;;;4965617;28;20046;-84
2022/04/10 06:15:05;;;;;;;12.75;3.10;;;;;;;;;;4965989;28;20038;-83
2022/04/10 06:17:33;;;;;;;11.57;3.33;;;;;;;;;;4983766;28;20528;-82
2022/04/10 06:20:01;;;;;;;9.85;2.83;;;;;;;;;;4974851;28;20038;-82
2022/04/10 06:22:26;;;;;;;12.05;3.10;;;;;;;;;;4992318;28;20045;-81
2022/04/10 06:24:53;;;;;;;14.52;3.65;;;;;;;;;;4962525;28;20050;-81
2022/04/10 06:27:19;;;;;;;10.85;2.95;;;;;;;;;;4974840;28;20027;-80
2022/04/10 06:29:44;;;;;;;8.65;3.35;;;;;;;;;;4970562;28;20525;-81
2022/04/10 06:32:10;;;;;;;10.88;3.30;;;;;;;;;;4973846;28;20490;-81
2022/04/10 06:34:35;;;;;;;9.82;2.90;;;;;;;;;;4972211;28;20089;-80
2022/04/10 06:37:00;;;;;;;12.98;3.00;;;;;;;;;;4988829;28;20053;-81
2022/04/10 06:39:26;;;;;;;8.25;2.47;;;;;;;;;;4984028;28;20093;-80
2022/04/10 06:41:51;;;;;;;16.13;3.15;;;;;;;;;;4985971;28;20521;-82
2022/04/10 06:44:17;;;;;;;11.80;2.90;;;;;;;;;;4986166;28;20116;-81
2022/04/10 06:46:42;;;;;;;11.38;2.80;;;;;;;;;;4993262;28;20088;-81
2022/04/10 06:49:07;;;;;;;13.15;3.00;;;;;;;;;;4996588;28;20093;-81
2022/04/10 06:51:33;;;;;;;8.65;2.90;;;;;;;;;;4980588;28;20084;-82
2022/04/10 06:53:58;;;;;;;15.20;2.78;;;;;;;;;;4975277;28;20034;-82
2022/04/10 06:56:23;;;;;;;10.20;2.92;;;;;;;;;;4971542;28;20750;-82
2022/04/10 06:58:51;;;;;;;12.60;2.95;;;;;;;;;;4984932;28;20049;-82
2022/04/10 07:01:16;;;;;;;10.32;2.80;;;;;;;;;;4993695;28;20145;-82
2022/04/10 07:03:42;;;;;;;11.85;3.13;;;;;;;;;;4985455;28;20129;-81
2022/04/10 07:06:07;;;;;;;9.95;2.67;;;;;;;;;;4978104;28;20072;-81
2022/04/10 07:08:32;;;;;;;8.50;2.60;;;;;;;;;;4987115;28;20046;-82
2022/04/10 07:10:58;;;;;;;10.82;2.85;;;;;;;;;;4979465;28;20088;-80
2022/04/10 07:13:23;;;;;;;8.93;3.08;;;;;;;;;;4993773;28;20045;-81
2022/04/10 07:15:52;;;;;;;10.82;3.05;;;;;;;;;;4985024;28;20453;-80
2022/04/10 07:18:18;;;;;;;9.98;2.35;;;;;;;;;;4979069;28;20060;-82
2022/04/10 07:20:43;;;;;;;10.82;2.42;;;;;;;;;;4985328;28;20034;-81
2022/04/10 07:25:53;;;;;;;10.93;2.40;;;;;;;;;;4977458;28;20125;-81
2022/04/10 07:28:19;;;;;;;10.48;2.58;;;;;;;;;;4972848;28;20034;-82
2022/04/10 07:30:44;;;;;;;10.07;2.53;;;;;;;;;;4979509;28;20042;-82
2022/04/10 07:33:10;;;;;;;15.07;3.17;;;;;;;;;;4994239;28;20543;-81
2022/04/10 07:35:36;;;;;;;10.93;2.80;;;;;;;;;;4991939;28;20141;-81
2022/04/10 07:38:03;;;;;;;13.30;2.53;;;;;;;;;;4983048;28;20049;-83
2022/04/10 07:40:28;;;;;;;14.15;3.03;;;;;;;;;;4967486;28;20073;-81
2022/04/10 07:42:56;;;;;;;12.00;2.85;;;;;;;;;;4979267;28;20921;-82
2022/04/10 07:48:05;;;;;;;11.57;2.83;;;;;;;;;;4992611;28;20380;-81
2022/04/10 07:50:30;;;;;;;10.98;2.88;;;;;;;;;;4981418;28;20038;-82
2022/04/10 07:52:56;;;;;;;11.70;3.10;;;;;;;;;;4984101;28;20070;-82
2022/04/10 07:55:27;;;;;;;13.90;2.63;;;;;;;;;;4984984;28;20048;-82
2022/04/10 07:57:53;;;;;;;12.15;2.90;;;;;;;;;;4967789;28;20042;-82
2022/04/10 08:00:18;;;;;;;10.45;2.50;;;;;;;;;;4962311;28;20046;-81
2022/04/10 08:02:48;;;;;;;15.40;3.28;;;;;;;;;;4985049;28;20049;-82
2022/04/10 08:05:14;;;;;;;11.48;3.28;;;;;;;;;;4993863;28;20455;-81
2022/04/10 08:07:40;;;;;;;9.18;2.97;;;;;;;;;;4999703;28;20041;-82
2022/04/10 08:10:06;;;;;;;13.77;2.90;;;;;;;;;;4992652;28;20069;-81
2022/04/10 08:12:32;;;;;;;12.70;3.03;;;;;;;;;;4975921;28;20037;-82
2022/04/10 08:14:57;;;;;;;13.50;2.83;;;;;;;;;;4971025;28;20031;-82
2022/04/10 08:17:23;;;;;;;13.52;2.67;;;;;;;;;;4992430;28;20394;-83
2022/04/10 08:19:48;;;;;;;11.20;3.10;;;;;;;;;;4985303;28;20042;-83
2022/04/10 08:22:14;;;;;;;10.45;2.67;;;;;;;;;;4977185;28;20117;-82
2022/04/10 08:24:40;;;;;;;11.05;2.63;;;;;;;;;;4986033;28;20397;-82
2022/04/10 08:27:05;;;;;;;11.18;2.90;;;;;;;;;;4982938;28;20035;-81
2022/04/10 08:29:31;;;;;;;10.68;2.83;;;;;;;;;;4964615;28;20133;-82
2022/04/10 08:31:56;;;;;;;9.25;2.53;;;;;;;;;;4957827;28;20030;-81
2022/04/10 08:34:21;;;;;;;11.38;2.72;;;;;;;;;;4974236;28;20489;-80
2022/04/10 08:36:46;;;;;;;15.55;3.10;;;;;;;;;;4960241;28;20038;-81
2022/04/10 08:39:12;;;;;;;13.00;2.63;;;;;;;;;;4958996;28;20086;-81
2022/04/10 08:41:39;;;;;;;13.63;3.30;;;;;;;;;;4980557;28;20533;-81
2022/04/10 08:44:05;;;;;;;11.05;2.45;;;;;;;;;;4978516;28;20045;-81
2022/04/10 08:46:34;;;;;;;13.23;2.60;;;;;;;;;;4986960;28;20508;-81
2022/04/10 08:48:59;;;;;;;9.15;2.20;;;;;;;;;;4982717;28;20041;-81
2022/04/10 08:51:26;;;;;;;14.02;2.88;;;;;;;;;;4978290;28;20112;-83
2022/04/10 08:53:54;;;;;;;13.75;2.97;;;;;;;;;;4978503;28;20101;-82
2022/04/10 08:56:19;;;;;;;9.32;2.47;;;;;;;;;;4984137;28;20042;-81
2022/04/10 08:58:44;;;;;;;12.60;2.65;;;;;;;;;;4970043;28;20080;-81
2022/04/10 09:01:11;;;;;;;11.23;2.75;;;;;;;;;;4976448;28;20034;-81
2022/04/10 09:03:37;;;;;;;10.93;2.40;;;;;;;;;;4998717;28;20457;-81
2022/04/10 09:06:07;;;;;;;12.85;3.00;;;;;;;;;;4973199;28;20058;-81
2022/04/10 09:08:35;;;;;;;11.02;2.72;;;;;;;;;;4969494;28;20106;-81
2022/04/10 09:11:03;;;;;;;8.90;2.85;;;;;;;;;;4984425;28;20184;-82
2022/04/10 09:13:35;;;;;;;13.07;3.42;;;;;;;;;;4987330;28;20030;-81
2022/04/10 09:16:06;;;;;;;11.90;2.80;;;;;;;;;;4967454;28;20546;-82
2022/04/10 09:19:01;;;;;;;13.55;3.20;;;;;;;;;;4985658;28;20031;-82
2022/04/10 09:21:29;;;;;;;12.88;2.53;;;;;;;;;;4976181;28;20471;-81
2022/04/10 09:23:59;;;;;;;8.10;2.60;;;;;;;;;;4975385;28;20449;-81
2022/04/10 09:26:27;;;;;;;10.80;3.03;;;;;;;;;;4969823;28;20038;-81
2022/04/10 09:28:53;;;;;;;12.20;4.50;;;;;;;;;;4970189;28;20117;-80
2022/04/10 09:31:31;;;;;;;12.13;3.05;;;;;;;;;;4979059;28;20046;-80
2022/04/10 09:33:59;;;;;;;17.00;3.58;;;;;;;;;;4982074;28;20034;-81
2022/04/10 09:36:50;;;;;;;13.32;3.45;;;;;;;;;;4972663;28;20105;-80
2022/04/10 09:39:30;;;;;;;12.02;3.03;;;;;;;;;;4978018;28;20092;-81
2022/04/10 09:42:08;;;;;;;11.15;3.22;;;;;;;;;;4978851;28;20524;-80
2022/04/10 09:44:35;;;;;;;12.38;3.22;;;;;;;;;;4960108;28;20046;-80
2022/04/10 09:47:06;;;;;;;150.13;67.77;;;;;;;;;;4993899;28;20038;-80
2022/04/10 09:49:32;;;;;;;21.90;6.15;;;;;;;;;;4986877;28;20480;-81
2022/04/10 09:52:08;;;;;;;9.32;2.55;;;;;;;;;;4976025;28;20115;-80
2022/04/10 09:54:42;;;;;;;12.95;2.72;;;;;;;;;;4981013;28;20041;-82
2022/04/10 09:57:15;;;;;;;9.18;2.30;;;;;;;;;;4974215;28;20049;-81
2022/04/10 09:59:48;;;;;;;8.98;2.40;;;;;;;;;;4967526;28;20320;-81
2022/04/10 10:02:15;;;;;;;10.18;2.35;;;;;;;;;;4977656;28;20064;-80
2022/04/10 10:04:41;;;;;;;7.47;2.33;;;;;;;;;;4974914;28;20050;-81
2022/04/10 10:07:11;;;;;;;10.07;2.47;;;;;;;;;;4963613;28;20038;-81
2022/04/10 10:09:37;;;;;;;10.80;2.85;;;;;;;;;;4961422;28;20096;-81
2022/04/10 10:12:03;;;;;;;8.27;1.80;;;;;;;;;;4997637;28;20045;-80
2022/04/10 10:14:31;;;;;;;10.38;2.20;;;;;;;;;;4979136;28;20383;-80
2022/04/10 10:17:01;;;;;;;10.48;2.38;;;;;;;;;;4961112;28;20127;-80
2022/04/10 10:19:29;;;;;;;8.90;2.35;;;;;;;;;;4953097;28;20042;-82
2022/04/10 10:21:54;;;;;;;9.85;2.22;;;;;;;;;;4997800;28;20030;-82
2022/04/10 10:24:21;;;;;;;9.30;2.15;;;;;;;;;;4987100;28;20053;-82
2022/04/10 10:26:59;;;;;;;6.97;2.00;;;;;;;;;;4984350;28;20038;-81
2022/04/10 10:29:43;;;;;;;;;;;;;;;;;;4988031;28;20104;-81
2022/04/10 10:32:39;;;;;;;9.35;2.45;;;;;;;;;;4973603;28;19924;-80
2022/04/10 10:35:04;;;;;;;8.57;2.28;;;;;;;;;;4967437;28;20046;-82
2022/04/10 10:37:46;;;;;;;10.27;2.20;;;;;;;;;;4984154;28;20039;-81
2022/04/10 10:40:18;;;;;;;8.80;2.10;;;;;;;;;;4976938;28;20133;-82
2022/04/10 10:42:45;;;;;;;9.95;2.53;;;;;;;;;;4973028;28;20041;-82
2022/04/10 10:45:11;;;;;;;11.85;2.33;;;;;;;;;;5000878;28;20758;-81
2022/04/10 10:47:36;;;;;;;11.05;2.50;;;;;;;;;;4985997;28;20038;-81
2022/04/10 10:50:25;;;;;;;8.90;2.40;;;;;;;;;;4974945;28;20047;-82
2022/04/10 10:53:08;;;;;;;10.40;2.20;;;;;;;;;;4979668;28;20070;-82
2022/04/10 10:55:49;;;;;;;11.95;2.40;;;;;;;;;;4973054;28;20081;-83
2022/04/10 10:58:20;;;;;;;10.13;2.17;;;;;;;;;;4974480;28;20061;-82
2022/04/10 11:00:52;;;;;;;8.07;2.00;;;;;;;;;;4977063;28;20113;-82
2022/04/10 11:03:17;;;;;;;6.05;1.90;;;;;;;;;;4961375;28;20037;-82
2022/04/10 11:05:42;;;;;;;8.23;2.17;;;;;;;;;;4970791;28;20032;-82
2022/04/10 11:08:13;;;;;;;10.15;2.33;;;;;;;;;;4961525;28;20546;-82
2022/04/10 11:11:04;;;;;;;8.65;2.33;;;;;;;;;;4980987;28;20149;-83
2022/04/10 11:13:42;;;;;;;8.18;2.20;;;;;;;;;;4953686;28;20544;-81
2022/04/10 11:16:12;;;;;;;6.72;1.95;;;;;;;;;;4955837;28;20049;-81
2022/04/10 11:18:50;;;;;;;10.52;2.40;;;;;;;;;;4960036;28;20031;-81
2022/04/10 11:21:20;;;;;;;10.65;2.83;;;;;;;;;;4961085;28;20039;-81
2022/04/10 11:23:45;;;;;;;6.68;2.00;;;;;;;;;;4962734;28;20074;-83
2022/04/10 11:26:15;;;;;;;11.05;2.45;;;;;;;;;;4965299;28;20458;-81
2022/04/10 11:28:55;;;;;;;8.48;2.03;;;;;;;;;;4980627;28;20046;-82
2022/04/10 11:31:37;;;;;;;7.72;2.35;;;;;;;;;;4965702;28;20047;-83
2022/04/10 11:34:11;;;;;;;9.57;2.10;;;;;;;;;;4959621;28;20038;-81
2022/04/10 11:36:48;;;;;;;7.95;2.20;;;;;;;;;;4968290;28;20384;-80
2022/04/10 11:39:16;;;;;;;8.23;1.63;;;;;;;;;;4990671;28;20703;-83
2022/04/10 11:41:44;;;;;;;;;;;;;;;;;;4980894;28;20084;-83
2022/04/10 11:44:12;;;;;;;6.20;1.80;;;;;;;;;;4993504;28;19921;-82
2022/04/10 11:46:37;;;;;;;7.60;1.70;;;;;;;;;;4984789;28;20073;-82
2022/04/10 11:49:06;;;;;;;5.75;1.80;;;;;;;;;;4986801;28;20136;-82
2022/04/10 11:51:58;;;;;;;9.80;2.00;;;;;;;;;;4962214;28;20043;-83
2022/04/10 11:54:35;;;;;;;7.13;1.55;;;;;;;;;;4966912;28;20058;-82
2022/04/10 11:57:10;;;;;;;7.80;2.20;;;;;;;;;;4996718;28;20448;-81
2022/04/10 11:59:43;;;;;;;6.53;1.77;;;;;;;;;;4973768;28;20046;-82
2022/04/10 12:02:12;;;;;;;5.07;1.42;;;;;;;;;;4970813;28;20117;-81
2022/04/10 12:04:38;;;;;;;10.40;2.28;;;;;;;;;;4989339;28;20046;-82
2022/04/10 12:07:15;;;;;;;8.20;2.05;;;;;;;;;;4975662;28;20837;-81
2022/04/10 12:09:41;;;;;;;8.95;1.90;;;;;;;;;;4958931;28;20053;-82
2022/04/10 12:12:06;;;;;;;8.32;1.85;;;;;;;;;;4980442;28;20034;-81
2022/04/10 12:14:32;;;;;;;7.35;2.00;;;;;;;;;;4991865;28;20038;-82
2022/04/10 12:16:57;;;;;;;5.43;1.67;;;;;;;;;;4978527;28;20045;-82
2022/04/10 12:19:30;;;;;;;7.40;2.03;;;;;;;;;;4968541;28;20121;-83
2022/04/10 12:21:55;;;;;;;8.05;1.95;;;;;;;;;;4987277;28;20027;-81
2022/04/10 12:24:21;;;;;;;6.90;1.77;;;;;;;;;;4961866;28;20034;-82
2022/04/10 12:26:47;;;;;;;7.20;2.13;;;;;;;;;;4982155;28;20034;-83
2022/04/10 12:29:12;;;;;;;8.40;1.90;;;;;;;;;;4988095;28;20038;-82
2022/04/10 12:31:41;;;;;;;7.85;1.90;;;;;;;;;;4989143;28;20034;-81
2022/04/10 12:34:08;;;;;;;8.35;1.92;;;;;;;;;;4987061;28;20549;-81
2022/04/10 12:36:44;;;;;;;9.60;1.83;;;;;;;;;;4981574;28;20033;-82
2022/04/10 12:39:09;;;;;;;6.03;1.60;;;;;;;;;;4973705;28;20042;-82
2022/04/10 12:41:34;;;;;;;7.78;1.70;;;;;;;;;;4987540;28;20030;-82
2022/04/10 12:44:04;;;;;;;4.95;1.58;;;;;;;;;;4981705;28;20481;-84
2022/04/10 12:46:33;;;;;;;7.18;1.67;;;;;;;;;;4988040;28;20061;-83
2022/04/10 12:49:12;;;;;;;5.45;1.42;;;;;;;;;;5002907;28;20041;-83
2022/04/10 12:52:03;;;;;;;7.82;1.95;;;;;;;;;;4984213;28;20043;-81
2022/04/10 12:54:50;;;;;;;7.55;2.15;;;;;;;;;;4979236;28;20045;-82
2022/04/10 12:57:26;;;;;;;6.13;1.42;;;;;;;;;;4981206;28;20164;-82
2022/04/10 12:59:52;;;;;;;8.10;1.52;;;;;;;;;;4962396;28;20042;-80
2022/04/10 13:02:25;;;;;;;7.55;1.70;;;;;;;;;;4965546;28;20030;-79
2022/04/10 13:05:00;;;;;;;7.03;2.03;;;;;;;;;;4992086;28;20047;-79
2022/04/10 13:07:27;;;;;;;8.65;2.00;;;;;;;;;;4983471;28;20100;-79
2022/04/10 13:10:01;;;;;;;7.10;1.63;;;;;;;;;;5004100;28;20034;-79
2022/04/10 13:12:27;;;;;;;6.90;1.67;;;;;;;;;;5001375;28;20069;-80
2022/04/10 13:14:52;;;;;;;6.13;1.80;;;;;;;;;;4975641;28;20560;-80
2022/04/10 13:17:18;;;;;;;7.80;1.90;;;;;;;;;;4965341;28;20064;-79
2022/04/10 13:19:43;;;;;;;7.05;1.95;;;;;;;;;;4977560;28;20056;-80
2022/04/10 13:22:08;;;;;;;6.43;2.03;;;;;;;;;;4983885;28;20412;-79
2022/04/10 13:24:34;;;;;;;7.40;2.00;;;;;;;;;;4980931;28;20061;-79
2022/04/10 13:27:00;;;;;;;12.18;2.10;;;;;;;;;;4986727;28;20034;-77
2022/04/10 13:29:26;;;;;;;7.38;1.90;;;;;;;;;;4986371;28;20058;-77
2022/04/10 13:31:51;;;;;;;7.80;2.17;;;;;;;;;;4995644;28;20141;-79
2022/04/10 13:34:16;;;;;;;6.47;1.90;;;;;;;;;;4994664;28;20470;-78
2022/04/10 13:36:42;;;;;;;6.60;1.80;;;;;;;;;;4987417;28;20042;-78
2022/04/10 13:39:08;;;;;;;7.47;2.30;;;;;;;;;;4996848;28;20042;-78
2022/04/10 13:41:33;;;;;;;6.78;1.75;;;;;;;;;;4987932;28;20037;-78
2022/04/10 13:44:01;;;;;;;6.82;1.98;;;;;;;;;;4980807;28;20061;-79
2022/04/10 13:46:26;;;;;;;6.78;1.67;;;;;;;;;;4987948;28;20068;-79
2022/04/10 13:48:51;;;;;;;7.68;1.80;;;;;;;;;;4983492;28;20033;-79
2022/04/10 13:51:17;;;;;;;4.82;1.45;;;;;;;;;;4987201;28;20044;-80
2022/04/10 13:53:42;;;;;;;5.35;1.40;;;;;;;;;;4979227;28;20042;-80
2022/04/10 13:56:07;;;;;;;7.15;1.42;;;;;;;;;;4964511;28;20125;-81
2022/04/10 13:58:33;;;;;;;7.53;1.67;;;;;;;;;;4962242;28;20038;-80
2022/04/10 14:01:06;;;;;;;6.95;1.67;;;;;;;;;;4962196;28;20122;-79
2022/04/10 14:03:34;;;;;;;6.50;1.58;;;;;;;;;;4985697;28;20041;-79
2022/04/10 14:05:59;;;;;;;;;;;;;;;;;;4986743;28;20049;-80
2022/04/10 14:08:26;;;;;;;18.13;8.37;;;;;;;;;;4986928;28;19921;-80
2022/04/10 14:10:51;;;;;;;7.60;1.58;;;;;;;;;;4996450;28;20282;-81
2022/04/10 14:13:17;;;;;;;4.55;1.50;;;;;;;;;;4979994;28;20045;-80
2022/04/10 14:15:42;;;;;;;6.25;1.60;;;;;;;;;;4982616;28;20042;-80
2022/04/10 14:18:07;;;;;;;4.80;1.40;;;;;;;;;;4977954;28;20062;-80
2022/04/10 14:20:33;;;;;;;5.45;1.55;;;;;;;;;;4996827;28;20033;-80
2022/04/10 14:23:00;;;;;;;5.18;1.40;;;;;;;;;;4995353;28;20061;-80
2022/04/10 14:25:25;;;;;;;6.25;1.40;;;;;;;;;;4985740;28;20041;-81
2022/04/10 14:27:51;;;;;;;8.23;2.25;;;;;;;;;;4966497;28;20030;-80
2022/04/10 14:30:16;;;;;;;5.10;1.40;;;;;;;;;;4962683;28;20133;-80
2022/04/10 14:32:41;;;;;;;6.07;1.48;;;;;;;;;;4976399;28;20088;-80
2022/04/10 14:35:07;;;;;;;5.25;1.65;;;;;;;;;;4966747;28;20418;-79
2022/04/10 14:37:32;;;;;;;4.35;1.33;;;;;;;;;;4968134;28;20030;-79
2022/04/10 14:39:57;;;;;;;5.85;1.40;;;;;;;;;;4985639;28;20121;-79
2022/04/10 14:42:23;;;;;;;6.10;1.50;;;;;;;;;;4980583;28;20084;-80
2022/04/10 14:44:48;;;;;;;3.20;0.93;;;;;;;;;;4980805;28;20065;-79